Wednesday, August 24, 2016, 12:06 PM EDT

KOXB, Ocean City Municipal Airport

Location: Berlin, MD, United States Lat: 38.317
Local Time: 12:06 PM EDT (16:06 GMT) Lon: -75.117
Time Zone: US/Eastern Elev: 13 ft

Show me the last for .
Show Decoded

2016-08-24 11:53 METAR KOXB 241553Z AUTO 14004KT 10SM CLR 27/17 A3030 RMK AO2 SLP260 T02670167
                 TSNO =
2016-08-24 10:53 METAR KOXB 241453Z AUTO 12005KT 10SM CLR 26/17 A3032 RMK AO2 SLP266 T02610167
                 50002 TSNO =
2016-08-24 09:53 METAR KOXB 241353Z AUTO 35003KT 10SM CLR 26/16 A3032 RMK AO2 SLP266 T02610156
                 TSNO =
2016-08-24 08:53 METAR KOXB 241253Z AUTO 31003KT 10SM CLR 24/18 A3031 RMK AO2 SLP264 T02390178
                 TSNO =
2016-08-24 07:53 METAR KOXB 241153Z AUTO 32003KT 10SM CLR 21/17 A3031 RMK AO2 SLP264 T02060172
                 10206 20144 53011 TSNO =
2016-08-24 06:53 METAR KOXB 241053Z AUTO 00000KT 10SM CLR 16/14 A3031 RMK AO2 SLP263 T01560144
                 TSNO =
2016-08-24 05:53 METAR KOXB 240953Z AUTO 00000KT 10SM CLR 15/13 A3028 RMK AO2 SLP255 T01500133
                 TSNO =
2016-08-24 04:53 METAR KOXB 240853Z AUTO 00000KT 10SM CLR 15/14 A3028 RMK AO2 SLP253 T01500139
                 55005 TSNO =
2016-08-24 03:53 METAR KOXB 240753Z AUTO 00000KT 10SM CLR 15/14 A3028 RMK AO2 SLP252 T01500139
                 TSNO =
2016-08-24 02:53 METAR KOXB 240653Z AUTO 00000KT 10SM CLR 16/14 A3029 RMK AO2 SLP255 T01560144
                 TSNO =
2016-08-24 01:53 METAR KOXB 240553Z AUTO 00000KT 10SM CLR 16/14 A3030 RMK AO2 SLP259 T01610144
                 10217 20161 58002 TSNO =
2016-08-24 00:53 METAR KOXB 240453Z AUTO 00000KT 10SM CLR 17/15 A3030 RMK AO2 SLP259 T01670150
                 402610161 TSNO =
2016-08-23 23:53 METAR KOXB 240353Z AUTO 00000KT 10SM CLR 17/15 A3031 RMK AO2 SLP262 T01670150
                 TSNO =
2016-08-23 22:53 METAR KOXB 240253Z AUTO 00000KT 10SM CLR 17/16 A3030 RMK AO2 SLP261 T01720156
                 51008 TSNO =
2016-08-23 21:53 METAR KOXB 240153Z AUTO 00000KT 10SM CLR 18/16 A3030 RMK AO2 SLP261 T01830156
                 TSNO =
2016-08-23 20:53 METAR KOXB 240053Z AUTO 12004KT 10SM CLR 22/15 A3029 RMK AO2 SLP257 T02170150
                 TSNO =
2016-08-23 19:53 METAR KOXB 232353Z AUTO 10004KT 10SM CLR 21/16 A3028 RMK AO2 SLP253 T02110156
                 10256 20211 55004 TSNO =
2016-08-23 18:53 METAR KOXB 232253Z AUTO 10006KT 10SM CLR 23/14 A3027 RMK AO2 SLP250 T02330144
                 TSNO =
2016-08-23 17:53 METAR KOXB 232153Z AUTO 09007KT 10SM CLR 24/14 A3028 RMK AO2 SLP255 T02390139
                 TSNO =
2016-08-23 16:53 METAR KOXB 232053Z AUTO 08007KT 10SM CLR 25/13 A3029 RMK AO2 SLP257 T02500128
                 56014 TSNO =
2016-08-23 15:53 METAR KOXB 231953Z AUTO 09009KT 10SM CLR 26/14 A3030 RMK AO2 SLP259 T02560139
                 TSNO =
2016-08-23 14:53 METAR KOXB 231853Z AUTO 08009KT 10SM CLR 26/14 A3031 RMK AO2 SLP265 T02560139
                 TSNO =
2016-08-23 13:53 METAR KOXB 231753Z AUTO 07007KT 10SM CLR 26/14 A3033 RMK AO2 SLP272 T02560139
                 10261 20217 58003 TSNO =
2016-08-23 12:53 METAR KOXB 231653Z AUTO 08009KT 10SM CLR 25/13 A3034 RMK AO2 SLP274 T02500133
                 TSNO =

Support USWX by starting your Amazon purchase here.